Decoded Metar for LFGJ (DOLE in FRANCE) (IATA:DLE) | Meteo·Mobile Aviation Weather
aviador You're here:

LFGJ Decoded Metar

DOLE in FRANCE
Report Time2019-07-21 17:30:00
UTC Time2019-07-21 17:55:37
Flight Rules vfr VFR
WindVRB at 03 kt
Visibility9999 m
Phenomena:N/A
Clouds:N/A
Expected CloudBase > 6,800 ft AGL from Temp-Dew spread
CeilingNone
Temp30°C (ISA +16)
Dew Point13°C (35% RH)
Heat Index29.2°C
AAT29.8°C
QNH1021 hPa
Density Alt2,441 ft
Elevation643 ft
Report Wrong Elevation
Raw Report
LFGJ 211730Z AUTO VRB03KT CAVOK 30/13 Q1021=

Extra information for LFGJ:More info

Metar Taf Metar & Taf Last 4 Metars F.Rules Stats Wind Profile Meteogram Temp Stats Airport Information Weather charts Add Link Nearby VenuesMetar ALERT Operation Metar Decoded Social comments